sensor_id;sensor_type;location;lat;lon;timestamp;pressure;altitude;pressure_sealevel;temperature;humidity
59110;BME280;44895;47.438;18.978;2023-07-22T00:01:15;99614.59;;;16.60;100.00
59110;BME280;44895;47.438;18.978;2023-07-22T00:04:19;99617.38;;;16.48;100.00
59110;BME280;44895;47.438;18.978;2023-07-22T00:07:23;99614.88;;;16.43;100.00
59110;BME280;44895;47.438;18.978;2023-07-22T00:10:27;99606.19;;;16.41;100.00
59110;BME280;44895;47.438;18.978;2023-07-22T00:13:31;99628.34;;;16.23;100.00
59110;BME280;44895;47.438;18.978;2023-07-22T00:16:35;99628.78;;;16.38;100.00
59110;BME280;44895;47.438;18.978;2023-07-22T00:19:39;99634.19;;;16.34;100.00
59110;BME280;44895;47.438;18.978;2023-07-22T00:22:43;99631.75;;;16.33;100.00
59110;BME280;44895;47.438;18.978;2023-07-22T00:25:47;99626.06;;;16.25;100.00
59110;BME280;44895;47.438;18.978;2023-07-22T00:28:50;99618.53;;;16.35;100.00
59110;BME280;44895;47.438;18.978;2023-07-22T00:31:54;99607.69;;;16.38;100.00
59110;BME280;44895;47.438;18.978;2023-07-22T00:34:58;99608.47;;;16.26;100.00
59110;BME280;44895;47.438;18.978;2023-07-22T00:38:02;99603.81;;;16.27;100.00
59110;BME280;44895;47.438;18.978;2023-07-22T00:41:06;99604.38;;;16.20;100.00
59110;BME280;44895;47.438;18.978;2023-07-22T00:44:11;99612.59;;;16.20;100.00
59110;BME280;44895;47.438;18.978;2023-07-22T00:47:15;99614.53;;;16.32;100.00
59110;BME280;44895;47.438;18.978;2023-07-22T00:50:21;99632.47;;;16.29;100.00
59110;BME280;44895;47.438;18.978;2023-07-22T00:53:26;99636.91;;;16.34;100.00
59110;BME280;44895;47.438;18.978;2023-07-22T00:56:36;99639.31;;;16.36;100.00
59110;BME280;44895;47.438;18.978;2023-07-22T00:59:39;99644.31;;;16.46;100.00
59110;BME280;44895;47.438;18.978;2023-07-22T01:02:44;99652.66;;;16.50;100.00
59110;BME280;44895;47.438;18.978;2023-07-22T01:05:48;99653.31;;;16.46;100.00
59110;BME280;44895;47.438;18.978;2023-07-22T01:08:52;99660.41;;;16.47;100.00
59110;BME280;44895;47.438;18.978;2023-07-22T01:11:56;99670.47;;;16.43;100.00
59110;BME280;44895;47.438;18.978;2023-07-22T01:15:01;99668.53;;;16.56;100.00
59110;BME280;44895;47.438;18.978;2023-07-22T01:18:07;99663.03;;;16.56;100.00
59110;BME280;44895;47.438;18.978;2023-07-22T01:21:11;99677.09;;;16.55;100.00
59110;BME280;44895;47.438;18.978;2023-07-22T01:24:15;99675.13;;;16.55;100.00
59110;BME280;44895;47.438;18.978;2023-07-22T01:27:20;99666.91;;;16.68;100.00
59110;BME280;44895;47.438;18.978;2023-07-22T01:30:24;99669.78;;;16.59;100.00
59110;BME280;44895;47.438;18.978;2023-07-22T01:33:29;99675.38;;;16.62;100.00
59110;BME280;44895;47.438;18.978;2023-07-22T01:36:33;99675.72;;;16.61;100.00
59110;BME280;44895;47.438;18.978;2023-07-22T01:39:37;99680.84;;;16.75;100.00
59110;BME280;44895;47.438;18.978;2023-07-22T01:42:41;99684.13;;;16.80;100.00
59110;BME280;44895;47.438;18.978;2023-07-22T01:45:46;99685.28;;;16.79;100.00
59110;BME280;44895;47.438;18.978;2023-07-22T01:48:49;99693.75;;;16.74;100.00
59110;BME280;44895;47.438;18.978;2023-07-22T01:51:53;99698.84;;;16.88;100.00
59110;BME280;44895;47.438;18.978;2023-07-22T01:54:57;99696.84;;;16.98;100.00
59110;BME280;44895;47.438;18.978;2023-07-22T01:58:02;99699.56;;;16.98;100.00
59110;BME280;44895;47.438;18.978;2023-07-22T02:01:06;99706.09;;;16.93;100.00
59110;BME280;44895;47.438;18.978;2023-07-22T02:04:11;99704.81;;;16.90;100.00
59110;BME280;44895;47.438;18.978;2023-07-22T02:07:15;99701.63;;;17.01;100.00
59110;BME280;44895;47.438;18.978;2023-07-22T02:10:19;99714.88;;;16.99;100.00
59110;BME280;44895;47.438;18.978;2023-07-22T02:13:22;99721.97;;;17.00;100.00
59110;BME280;44895;47.438;18.978;2023-07-22T02:16:26;99737.16;;;16.97;100.00
59110;BME280;44895;47.438;18.978;2023-07-22T02:19:29;99735.66;;;17.00;100.00
59110;BME280;44895;47.438;18.978;2023-07-22T02:22:33;99731.00;;;17.00;100.00
59110;BME280;44895;47.438;18.978;2023-07-22T02:25:37;99735.91;;;17.07;100.00
59110;BME280;44895;47.438;18.978;2023-07-22T02:28:40;99743.56;;;17.01;100.00
59110;BME280;44895;47.438;18.978;2023-07-22T02:31:44;99740.38;;;16.99;100.00
59110;BME280;44895;47.438;18.978;2023-07-22T02:34:48;99734.19;;;17.02;100.00
59110;BME280;44895;47.438;18.978;2023-07-22T02:37:51;99734.28;;;17.06;100.00
59110;BME280;44895;47.438;18.978;2023-07-22T02:41:01;99733.16;;;16.94;100.00
59110;BME280;44895;47.438;18.978;2023-07-22T02:44:05;99728.50;;;16.95;100.00
59110;BME280;44895;47.438;18.978;2023-07-22T02:47:09;99753.16;;;17.07;100.00
59110;BME280;44895;47.438;18.978;2023-07-22T02:50:13;99746.97;;;17.10;100.00
59110;BME280;44895;47.438;18.978;2023-07-22T02:53:17;99752.81;;;17.09;100.00
59110;BME280;44895;47.438;18.978;2023-07-22T02:56:20;99743.56;;;17.01;100.00
59110;BME280;44895;47.438;18.978;2023-07-22T02:59:24;99752.25;;;17.03;100.00
59110;BME280;44895;47.438;18.978;2023-07-22T03:02:28;99761.97;;;17.01;100.00
59110;BME280;44895;47.438;18.978;2023-07-22T03:05:32;99766.19;;;16.98;100.00
59110;BME280;44895;47.438;18.978;2023-07-22T03:08:36;99773.84;;;17.05;100.00
59110;BME280;44895;47.438;18.978;2023-07-22T03:11:39;99776.81;;;17.12;100.00
59110;BME280;44895;47.438;18.978;2023-07-22T03:14:43;99772.09;;;17.12;100.00
59110;BME280;44895;47.438;18.978;2023-07-22T03:17:47;99773.72;;;17.14;100.00
59110;BME280;44895;47.438;18.978;2023-07-22T03:20:51;99777.59;;;17.12;100.00
59110;BME280;44895;47.438;18.978;2023-07-22T03:23:55;99772.81;;;17.22;100.00
59110;BME280;44895;47.438;18.978;2023-07-22T03:26:58;99771.78;;;17.14;100.00
59110;BME280;44895;47.438;18.978;2023-07-22T03:30:04;99781.03;;;17.09;100.00
59110;BME280;44895;47.438;18.978;2023-07-22T03:33:10;99779.97;;;17.26;100.00
59110;BME280;44895;47.438;18.978;2023-07-22T03:36:14;99778.94;;;17.31;100.00
59110;BME280;44895;47.438;18.978;2023-07-22T03:39:18;99782.41;;;17.28;100.00
59110;BME280;44895;47.438;18.978;2023-07-22T03:42:21;99777.34;;;17.30;100.00
59110;BME280;44895;47.438;18.978;2023-07-22T03:45:25;99771.97;;;17.34;100.00
59110;BME280;44895;47.438;18.978;2023-07-22T03:48:29;99783.03;;;17.50;100.00
59110;BME280;44895;47.438;18.978;2023-07-22T03:51:33;99794.13;;;17.41;100.00
59110;BME280;44895;47.438;18.978;2023-07-22T03:54:36;99791.81;;;17.55;100.00
59110;BME280;44895;47.438;18.978;2023-07-22T03:57:40;99784.16;;;17.49;100.00
59110;BME280;44895;47.438;18.978;2023-07-22T04:00:48;99803.72;;;17.47;100.00
59110;BME280;44895;47.438;18.978;2023-07-22T04:03:52;99799.38;;;17.46;100.00
59110;BME280;44895;47.438;18.978;2023-07-22T04:06:56;99787.00;;;17.65;100.00
59110;BME280;44895;47.438;18.978;2023-07-22T04:10:00;99784.50;;;17.59;100.00
59110;BME280;44895;47.438;18.978;2023-07-22T04:13:03;99784.56;;;17.63;100.00
59110;BME280;44895;47.438;18.978;2023-07-22T04:16:07;99786.75;;;17.70;100.00
59110;BME280;44895;47.438;18.978;2023-07-22T04:19:12;99786.34;;;17.84;100.00
59110;BME280;44895;47.438;18.978;2023-07-22T04:22:16;99777.38;;;17.87;100.00
59110;BME280;44895;47.438;18.978;2023-07-22T04:25:19;99780.69;;;17.92;100.00
59110;BME280;44895;47.438;18.978;2023-07-22T04:28:24;99776.47;;;17.95;100.00
59110;BME280;44895;47.438;18.978;2023-07-22T04:31:28;99771.00;;;18.11;100.00
59110;BME280;44895;47.438;18.978;2023-07-22T04:34:32;99784.88;;;18.63;100.00
59110;BME280;44895;47.438;18.978;2023-07-22T04:37:36;99774.75;;;18.67;100.00
59110;BME280;44895;47.438;18.978;2023-07-22T04:40:43;99770.31;;;18.94;100.00
59110;BME280;44895;47.438;18.978;2023-07-22T04:43:47;99770.94;;;18.71;100.00
59110;BME280;44895;47.438;18.978;2023-07-22T04:46:51;99771.41;;;18.57;100.00
59110;BME280;44895;47.438;18.978;2023-07-22T04:49:55;99777.34;;;18.60;100.00
59110;BME280;44895;47.438;18.978;2023-07-22T04:52:59;99788.78;;;18.62;100.00
59110;BME280;44895;47.438;18.978;2023-07-22T04:56:02;99794.00;;;18.67;100.00
59110;BME280;44895;47.438;18.978;2023-07-22T04:59:07;99794.00;;;18.83;100.00
59110;BME280;44895;47.438;18.978;2023-07-22T05:02:10;99795.78;;;18.91;100.00
59110;BME280;44895;47.438;18.978;2023-07-22T05:05:15;99801.97;;;18.88;100.00
59110;BME280;44895;47.438;18.978;2023-07-22T05:08:19;99798.97;;;19.09;100.00
59110;BME280;44895;47.438;18.978;2023-07-22T05:11:22;99793.03;;;19.27;100.00
59110;BME280;44895;47.438;18.978;2023-07-22T05:14:27;99799.53;;;19.54;100.00
59110;BME280;44895;47.438;18.978;2023-07-22T05:17:31;99801.34;;;19.46;100.00
59110;BME280;44895;47.438;18.978;2023-07-22T05:20:34;99807.88;;;19.77;100.00
59110;BME280;44895;47.438;18.978;2023-07-22T05:23:38;99814.28;;;19.81;100.00
59110;BME280;44895;47.438;18.978;2023-07-22T05:26:42;99813.06;;;20.41;100.00
59110;BME280;44895;47.438;18.978;2023-07-22T05:29:46;99816.41;;;20.74;100.00
59110;BME280;44895;47.438;18.978;2023-07-22T05:32:53;99819.16;;;21.85;100.00
59110;BME280;44895;47.438;18.978;2023-07-22T05:35:57;99807.84;;;28.73;100.00
59110;BME280;44895;47.438;18.978;2023-07-22T05:39:00;99808.72;;;32.24;74.80
59110;BME280;44895;47.438;18.978;2023-07-22T05:42:04;99808.97;;;34.02;63.61
59110;BME280;44895;47.438;18.978;2023-07-22T05:45:09;99810.34;;;36.05;52.27
59110;BME280;44895;47.438;18.978;2023-07-22T05:48:17;99819.03;;;36.83;47.09
59110;BME280;44895;47.438;18.978;2023-07-22T05:51:21;99817.25;;;36.04;45.29
59110;BME280;44895;47.438;18.978;2023-07-22T05:54:26;99827.88;;;37.40;41.84
59110;BME280;44895;47.438;18.978;2023-07-22T05:57:30;99832.19;;;38.10;42.07
59110;BME280;44895;47.438;18.978;2023-07-22T06:00:34;99833.13;;;38.37;40.75
59110;BME280;44895;47.438;18.978;2023-07-22T06:03:38;99840.03;;;37.16;40.97
59110;BME280;44895;47.438;18.978;2023-07-22T06:06:42;99829.75;;;38.02;39.89
59110;BME280;44895;47.438;18.978;2023-07-22T06:09:45;99824.69;;;39.77;36.47
59110;BME280;44895;47.438;18.978;2023-07-22T06:12:49;99833.00;;;38.66;37.84
59110;BME280;44895;47.438;18.978;2023-07-22T06:15:53;99822.66;;;39.52;36.28
59110;BME280;44895;47.438;18.978;2023-07-22T06:18:56;99827.47;;;39.98;35.55
59110;BME280;44895;47.438;18.978;2023-07-22T06:22:00;99826.44;;;39.43;36.13
59110;BME280;44895;47.438;18.978;2023-07-22T06:25:04;99815.63;;;40.98;34.10
59110;BME280;44895;47.438;18.978;2023-07-22T06:28:09;99824.00;;;40.15;35.07
59110;BME280;44895;47.438;18.978;2023-07-22T06:31:13;99825.09;;;39.38;35.50
59110;BME280;44895;47.438;18.978;2023-07-22T06:34:16;99814.72;;;41.52;33.41
59110;BME280;44895;47.438;18.978;2023-07-22T06:37:20;99814.91;;;41.14;34.12
59110;BME280;44895;47.438;18.978;2023-07-22T06:40:24;99825.59;;;40.70;34.29
59110;BME280;44895;47.438;18.978;2023-07-22T06:43:28;99815.50;;;41.75;32.11
59110;BME280;44895;47.438;18.978;2023-07-22T06:46:32;99819.59;;;40.63;33.67
59110;BME280;44895;47.438;18.978;2023-07-22T06:49:36;99826.09;;;39.61;35.57
59110;BME280;44895;47.438;18.978;2023-07-22T06:52:39;99828.66;;;40.61;34.60
59110;BME280;44895;47.438;18.978;2023-07-22T06:55:50;99836.34;;;36.52;39.13
59110;BME280;44895;47.438;18.978;2023-07-22T06:58:57;99837.16;;;35.02;43.08
59110;BME280;44895;47.438;18.978;2023-07-22T07:02:02;99852.56;;;31.50;50.03
59110;BME280;44895;47.438;18.978;2023-07-22T07:05:06;99847.50;;;33.03;50.66
59110;BME280;44895;47.438;18.978;2023-07-22T07:08:10;99859.44;;;30.70;58.65
59110;BME280;44895;47.438;18.978;2023-07-22T07:11:14;99854.00;;;29.49;73.71
59110;BME280;44895;47.438;18.978;2023-07-22T07:14:18;99856.63;;;28.38;87.07
59110;BME280;44895;47.438;18.978;2023-07-22T07:17:21;99869.06;;;27.67;94.71
59110;BME280;44895;47.438;18.978;2023-07-22T07:20:25;99874.19;;;27.73;100.00
59110;BME280;44895;47.438;18.978;2023-07-22T07:23:28;99872.63;;;27.72;97.71
59110;BME280;44895;47.438;18.978;2023-07-22T07:26:32;99868.00;;;26.63;100.00
59110;BME280;44895;47.438;18.978;2023-07-22T07:29:36;99878.66;;;27.25;100.00
59110;BME280;44895;47.438;18.978;2023-07-22T07:32:40;99885.56;;;27.09;99.95
59110;BME280;44895;47.438;18.978;2023-07-22T07:35:46;99872.06;;;26.51;100.00
59110;BME280;44895;47.438;18.978;2023-07-22T07:38:50;99889.81;;;26.09;100.00
59110;BME280;44895;47.438;18.978;2023-07-22T07:41:54;99889.22;;;27.02;100.00
59110;BME280;44895;47.438;18.978;2023-07-22T07:44:58;99902.84;;;26.90;100.00
59110;BME280;44895;47.438;18.978;2023-07-22T07:48:01;99892.75;;;27.52;100.00
59110;BME280;44895;47.438;18.978;2023-07-22T07:51:05;99891.63;;;30.62;71.15
59110;BME280;44895;47.438;18.978;2023-07-22T07:54:09;99902.75;;;29.24;70.22
59110;BME280;44895;47.438;18.978;2023-07-22T07:57:13;99904.50;;;28.36;81.21
59110;BME280;44895;47.438;18.978;2023-07-22T08:00:17;99916.88;;;27.24;91.84
59110;BME280;44895;47.438;18.978;2023-07-22T08:03:20;99913.53;;;26.31;100.00
59110;BME280;44895;47.438;18.978;2023-07-22T08:06:24;99917.41;;;26.48;100.00
59110;BME280;44895;47.438;18.978;2023-07-22T08:09:28;99926.59;;;27.54;97.10
59110;BME280;44895;47.438;18.978;2023-07-22T08:12:31;99926.09;;;27.21;100.00
59110;BME280;44895;47.438;18.978;2023-07-22T08:15:35;99925.47;;;26.99;100.00
59110;BME280;44895;47.438;18.978;2023-07-22T08:18:39;99936.91;;;26.48;100.00
59110;BME280;44895;47.438;18.978;2023-07-22T08:21:42;99941.72;;;26.37;100.00
59110;BME280;44895;47.438;18.978;2023-07-22T08:24:46;99948.31;;;26.68;100.00
59110;BME280;44895;47.438;18.978;2023-07-22T08:27:50;99949.94;;;26.62;100.00
59110;BME280;44895;47.438;18.978;2023-07-22T08:30:54;99949.50;;;26.75;100.00
59110;BME280;44895;47.438;18.978;2023-07-22T08:33:58;99958.56;;;26.01;100.00
59110;BME280;44895;47.438;18.978;2023-07-22T08:37:02;99960.63;;;25.64;100.00
59110;BME280;44895;47.438;18.978;2023-07-22T08:40:07;99965.41;;;25.31;100.00
59110;BME280;44895;47.438;18.978;2023-07-22T08:43:11;99967.00;;;25.54;100.00
59110;BME280;44895;47.438;18.978;2023-07-22T08:46:16;99968.19;;;25.46;100.00
59110;BME280;44895;47.438;18.978;2023-07-22T08:49:21;99970.16;;;25.70;100.00
59110;BME280;44895;47.438;18.978;2023-07-22T08:52:25;99974.91;;;25.23;100.00
59110;BME280;44895;47.438;18.978;2023-07-22T08:55:28;99961.81;;;25.52;100.00
59110;BME280;44895;47.438;18.978;2023-07-22T08:58:34;99969.78;;;25.32;100.00
59110;BME280;44895;47.438;18.978;2023-07-22T09:01:37;99972.94;;;25.70;100.00
59110;BME280;44895;47.438;18.978;2023-07-22T09:04:43;99983.66;;;25.65;98.77
59110;BME280;44895;47.438;18.978;2023-07-22T09:07:48;99980.81;;;25.94;100.00
59110;BME280;44895;47.438;18.978;2023-07-22T09:10:53;99980.91;;;25.58;100.00
59110;BME280;44895;47.438;18.978;2023-07-22T09:13:57;99981.28;;;25.67;100.00
59110;BME280;44895;47.438;18.978;2023-07-22T09:17:01;99988.06;;;25.48;95.83
59110;BME280;44895;47.438;18.978;2023-07-22T09:20:06;99995.94;;;25.06;100.00
59110;BME280;44895;47.438;18.978;2023-07-22T09:23:11;99997.13;;;25.19;98.20
59110;BME280;44895;47.438;18.978;2023-07-22T09:26:17;99997.16;;;25.12;93.73
59110;BME280;44895;47.438;18.978;2023-07-22T09:29:38;99994.38;;;25.41;88.70
59110;BME280;44895;47.438;18.978;2023-07-22T09:32:43;99985.22;;;25.15;92.32
59110;BME280;44895;47.438;18.978;2023-07-22T09:35:48;99986.47;;;25.54;92.86
59110;BME280;44895;47.438;18.978;2023-07-22T09:39:02;99989.25;;;25.54;99.73
59110;BME280;44895;47.438;18.978;2023-07-22T09:42:07;99978.13;;;25.47;100.00
59110;BME280;44895;47.438;18.978;2023-07-22T09:45:12;99979.69;;;25.69;100.00
59110;BME280;44895;47.438;18.978;2023-07-22T09:48:16;99984.47;;;25.62;86.73
59110;BME280;44895;47.438;18.978;2023-07-22T09:51:20;99979.69;;;25.55;89.40
59110;BME280;44895;47.438;18.978;2023-07-22T09:54:26;99975.34;;;25.58;84.73
59110;BME280;44895;47.438;18.978;2023-07-22T09:57:33;99978.91;;;25.65;86.70
59110;BME280;44895;47.438;18.978;2023-07-22T10:00:39;99970.94;;;25.64;87.46
59110;BME280;44895;47.438;18.978;2023-07-22T10:03:45;99975.66;;;25.88;89.47
59110;BME280;44895;47.438;18.978;2023-07-22T10:06:50;99980.03;;;25.89;81.89
59110;BME280;44895;47.438;18.978;2023-07-22T10:09:55;99988.00;;;25.80;79.94
59110;BME280;44895;47.438;18.978;2023-07-22T10:12:59;100003.50;;;25.85;83.57
59110;BME280;44895;47.438;18.978;2023-07-22T10:16:03;99993.56;;;25.84;81.10
59110;BME280;44895;47.438;18.978;2023-07-22T10:19:09;99995.47;;;26.19;79.87
59110;BME280;44895;47.438;18.978;2023-07-22T10:22:14;99991.47;;;26.28;79.14
59110;BME280;44895;47.438;18.978;2023-07-22T10:25:19;100000.25;;;26.23;75.79
59110;BME280;44895;47.438;18.978;2023-07-22T10:28:23;100004.88;;;26.58;79.87
59110;BME280;44895;47.438;18.978;2023-07-22T10:31:31;100002.88;;;26.59;74.96
59110;BME280;44895;47.438;18.978;2023-07-22T10:34:34;99999.59;;;26.85;78.02
59110;BME280;44895;47.438;18.978;2023-07-22T10:37:39;99993.72;;;26.58;73.12
59110;BME280;44895;47.438;18.978;2023-07-22T10:43:59;99986.66;;;26.39;68.76
59110;BME280;44895;47.438;18.978;2023-07-22T10:47:03;99982.69;;;26.44;70.44
59110;BME280;44895;47.438;18.978;2023-07-22T10:50:08;99979.94;;;26.22;68.61
59110;BME280;44895;47.438;18.978;2023-07-22T10:56:23;99967.50;;;26.52;66.95
59110;BME280;44895;47.438;18.978;2023-07-22T10:59:28;99975.09;;;26.44;66.40
59110;BME280;44895;47.438;18.978;2023-07-22T11:02:32;99971.81;;;26.64;70.59
59110;BME280;44895;47.438;18.978;2023-07-22T11:05:52;99959.97;;;26.49;64.54
59110;BME280;44895;47.438;18.978;2023-07-22T11:08:58;99962.22;;;26.79;65.14
59110;BME280;44895;47.438;18.978;2023-07-22T11:12:08;99966.00;;;26.36;69.77
59110;BME280;44895;47.438;18.978;2023-07-22T11:15:17;99967.31;;;25.99;71.53
59110;BME280;44895;47.438;18.978;2023-07-22T11:18:20;99961.00;;;25.77;70.07
59110;BME280;44895;47.438;18.978;2023-07-22T11:21:24;99966.56;;;25.73;73.92
59110;BME280;44895;47.438;18.978;2023-07-22T11:24:28;99960.94;;;26.06;70.26
59110;BME280;44895;47.438;18.978;2023-07-22T11:27:32;99956.63;;;25.83;68.31
59110;BME280;44895;47.438;18.978;2023-07-22T11:30:36;99966.56;;;25.73;66.95
59110;BME280;44895;47.438;18.978;2023-07-22T11:33:40;99950.22;;;25.90;69.90
59110;BME280;44895;47.438;18.978;2023-07-22T11:36:47;99957.78;;;25.93;72.83
59110;BME280;44895;47.438;18.978;2023-07-22T11:39:51;99954.28;;;25.53;67.03
59110;BME280;44895;47.438;18.978;2023-07-22T11:42:56;99956.63;;;25.76;69.04
59110;BME280;44895;47.438;18.978;2023-07-22T11:45:59;99960.63;;;25.61;70.77
59110;BME280;44895;47.438;18.978;2023-07-22T11:49:03;99960.66;;;25.46;67.99
59110;BME280;44895;47.438;18.978;2023-07-22T11:52:09;99953.41;;;25.96;62.04
59110;BME280;44895;47.438;18.978;2023-07-22T11:55:13;99953.38;;;26.07;63.24
59110;BME280;44895;47.438;18.978;2023-07-22T11:58:24;99953.00;;;25.94;64.89
59110;BME280;44895;47.438;18.978;2023-07-22T12:01:32;99952.13;;;26.26;65.87
59110;BME280;44895;47.438;18.978;2023-07-22T12:04:37;99945.38;;;26.23;62.12
59110;BME280;44895;47.438;18.978;2023-07-22T12:07:41;99944.34;;;26.77;60.40
59110;BME280;44895;47.438;18.978;2023-07-22T12:10:57;99944.22;;;26.91;60.92
59110;BME280;44895;47.438;18.978;2023-07-22T12:14:13;99939.03;;;26.93;56.41
59110;BME280;44895;47.438;18.978;2023-07-22T12:17:17;99945.78;;;26.96;54.27
59110;BME280;44895;47.438;18.978;2023-07-22T12:20:29;99944.25;;;26.84;53.32
59110;BME280;44895;47.438;18.978;2023-07-22T12:23:33;99946.25;;;26.87;54.47
59110;BME280;44895;47.438;18.978;2023-07-22T12:26:37;99939.56;;;27.26;56.04
59110;BME280;44895;47.438;18.978;2023-07-22T12:29:41;99941.22;;;27.20;54.42
59110;BME280;44895;47.438;18.978;2023-07-22T12:32:45;99939.91;;;27.32;55.30
59110;BME280;44895;47.438;18.978;2023-07-22T12:35:49;99928.19;;;27.06;55.04
59110;BME280;44895;47.438;18.978;2023-07-22T12:38:52;99940.38;;;26.74;54.72
59110;BME280;44895;47.438;18.978;2023-07-22T12:41:56;99931.59;;;26.72;53.87
59110;BME280;44895;47.438;18.978;2023-07-22T12:45:00;99932.00;;;26.70;54.50
59110;BME280;44895;47.438;18.978;2023-07-22T12:48:04;99933.19;;;26.77;53.52
59110;BME280;44895;47.438;18.978;2023-07-22T12:51:09;99932.88;;;26.60;52.08
59110;BME280;44895;47.438;18.978;2023-07-22T12:54:13;99934.03;;;26.63;53.48
59110;BME280;44895;47.438;18.978;2023-07-22T12:57:16;99928.00;;;26.79;55.81
59110;BME280;44895;47.438;18.978;2023-07-22T13:00:20;99924.41;;;26.78;55.18
59110;BME280;44895;47.438;18.978;2023-07-22T13:03:24;99913.28;;;26.71;55.80
59110;BME280;44895;47.438;18.978;2023-07-22T13:06:28;99922.00;;;26.80;55.14
59110;BME280;44895;47.438;18.978;2023-07-22T13:09:31;99916.09;;;26.75;55.73
59110;BME280;44895;47.438;18.978;2023-07-22T13:12:35;99916.09;;;26.75;51.81
59110;BME280;44895;47.438;18.978;2023-07-22T13:15:39;99912.56;;;26.60;53.22
59110;BME280;44895;47.438;18.978;2023-07-22T13:18:43;99921.47;;;26.36;52.89
59110;BME280;44895;47.438;18.978;2023-07-22T13:21:46;99910.25;;;26.51;54.16
59110;BME280;44895;47.438;18.978;2023-07-22T13:24:50;99906.16;;;26.66;53.67
59110;BME280;44895;47.438;18.978;2023-07-22T13:27:54;99914.88;;;26.79;53.39
59110;BME280;44895;47.438;18.978;2023-07-22T13:30:58;99909.19;;;26.90;53.12
59110;BME280;44895;47.438;18.978;2023-07-22T13:34:02;99917.78;;;26.54;51.85
59110;BME280;44895;47.438;18.978;2023-07-22T13:37:06;99911.06;;;26.48;53.14
59110;BME280;44895;47.438;18.978;2023-07-22T13:40:10;99918.16;;;26.56;51.35
59110;BME280;44895;47.438;18.978;2023-07-22T13:43:14;99914.50;;;26.70;49.80
59110;BME280;44895;47.438;18.978;2023-07-22T13:46:18;99919.28;;;26.69;49.10
59110;BME280;44895;47.438;18.978;2023-07-22T13:49:22;99916.53;;;26.62;48.89
59110;BME280;44895;47.438;18.978;2023-07-22T13:52:25;99917.34;;;26.59;48.49
59110;BME280;44895;47.438;18.978;2023-07-22T13:55:29;99912.56;;;26.63;50.89
59110;BME280;44895;47.438;18.978;2023-07-22T13:58:33;99913.38;;;26.60;50.11
59110;BME280;44895;47.438;18.978;2023-07-22T14:01:37;99910.53;;;26.64;50.63
59110;BME280;44895;47.438;18.978;2023-07-22T14:04:40;99902.19;;;26.67;50.13
59110;BME280;44895;47.438;18.978;2023-07-22T14:07:44;99906.66;;;26.54;51.21
59110;BME280;44895;47.438;18.978;2023-07-22T14:10:48;99899.19;;;26.40;51.96
59110;BME280;44895;47.438;18.978;2023-07-22T14:13:52;99907.00;;;26.60;53.82
59110;BME280;44895;47.438;18.978;2023-07-22T14:16:56;99901.41;;;26.67;53.25
59110;BME280;44895;47.438;18.978;2023-07-22T14:20:00;99888.31;;;26.60;51.42
59110;BME280;44895;47.438;18.978;2023-07-22T14:23:04;99887.47;;;26.74;51.60
59110;BME280;44895;47.438;18.978;2023-07-22T14:26:08;99887.88;;;26.65;50.10
59110;BME280;44895;47.438;18.978;2023-07-22T14:29:11;99892.34;;;26.52;49.36
59110;BME280;44895;47.438;18.978;2023-07-22T14:32:15;99893.09;;;26.60;49.23
59110;BME280;44895;47.438;18.978;2023-07-22T14:35:22;99880.00;;;26.57;49.98
59110;BME280;44895;47.438;18.978;2023-07-22T14:38:26;99880.78;;;26.57;49.79
59110;BME280;44895;47.438;18.978;2023-07-22T14:41:32;99879.56;;;26.62;47.75
59110;BME280;44895;47.438;18.978;2023-07-22T14:44:35;99873.56;;;26.67;49.31
59110;BME280;44895;47.438;18.978;2023-07-22T14:47:39;99872.00;;;26.59;49.83
59110;BME280;44895;47.438;18.978;2023-07-22T14:50:42;99876.03;;;26.54;48.62
59110;BME280;44895;47.438;18.978;2023-07-22T14:53:46;99869.31;;;26.48;50.65
59110;BME280;44895;47.438;18.978;2023-07-22T14:56:50;99867.25;;;26.59;50.66
59110;BME280;44895;47.438;18.978;2023-07-22T14:59:55;99864.06;;;26.57;51.49
59110;BME280;44895;47.438;18.978;2023-07-22T15:02:59;99868.94;;;26.42;49.21
59110;BME280;44895;47.438;18.978;2023-07-22T15:06:03;99880.88;;;26.39;51.98
59110;BME280;44895;47.438;18.978;2023-07-22T15:09:06;99876.06;;;26.50;50.11
59110;BME280;44895;47.438;18.978;2023-07-22T15:12:10;99876.34;;;26.63;49.24
59110;BME280;44895;47.438;18.978;2023-07-22T15:15:13;99875.59;;;26.59;47.94
59110;BME280;44895;47.438;18.978;2023-07-22T15:18:17;99862.84;;;26.62;49.00
59110;BME280;44895;47.438;18.978;2023-07-22T15:21:21;99847.28;;;26.68;49.67
59110;BME280;44895;47.438;18.978;2023-07-22T15:24:24;99851.34;;;26.52;46.63
59110;BME280;44895;47.438;18.978;2023-07-22T15:27:28;99861.00;;;26.41;45.95
59110;BME280;44895;47.438;18.978;2023-07-22T15:30:32;99865.69;;;26.51;47.37
59110;BME280;44895;47.438;18.978;2023-07-22T15:33:36;99869.75;;;26.43;45.67
59110;BME280;44895;47.438;18.978;2023-07-22T15:36:39;99868.69;;;26.18;46.37
59110;BME280;44895;47.438;18.978;2023-07-22T15:39:43;99868.72;;;26.15;47.18
59110;BME280;44895;47.438;18.978;2023-07-22T15:42:47;99872.13;;;26.41;47.53
59110;BME280;44895;47.438;18.978;2023-07-22T15:45:51;99871.03;;;26.24;50.06
59110;BME280;44895;47.438;18.978;2023-07-22T15:48:55;99885.03;;;26.02;50.42
59110;BME280;44895;47.438;18.978;2023-07-22T15:51:58;99874.69;;;26.10;49.40
59110;BME280;44895;47.438;18.978;2023-07-22T15:55:02;99867.19;;;25.92;47.94
59110;BME280;44895;47.438;18.978;2023-07-22T15:58:06;99881.53;;;25.87;48.90
59110;BME280;44895;47.438;18.978;2023-07-22T16:01:10;99870.44;;;25.72;48.84
59110;BME280;44895;47.438;18.978;2023-07-22T16:04:14;99869.66;;;25.65;48.71